createdAt,value
2022-09-26T00:00:13.335Z,0.00
2022-09-26T00:01:13.393Z,0.00
2022-09-26T00:02:13.389Z,0.00
2022-09-26T00:03:13.314Z,0.00
2022-09-26T00:04:13.311Z,0.00
2022-09-26T00:05:13.305Z,0.00
2022-09-26T00:06:13.294Z,0.00
2022-09-26T00:07:13.286Z,0.00
2022-09-26T00:08:13.296Z,0.00
2022-09-26T00:09:13.387Z,0.00
2022-09-26T00:10:13.267Z,0.00
2022-09-26T00:11:13.264Z,0.00
2022-09-26T00:12:13.255Z,0.00
2022-09-26T00:13:13.245Z,0.00
2022-09-26T00:14:13.244Z,0.00
2022-09-26T00:15:13.234Z,0.00
2022-09-26T00:16:13.343Z,0.00
2022-09-26T00:17:13.260Z,0.00
2022-09-26T00:18:13.213Z,0.00
2022-09-26T00:19:13.316Z,0.00
2022-09-26T00:20:13.206Z,0.00
2022-09-26T00:21:13.195Z,0.00
2022-09-26T00:22:13.194Z,0.00
2022-09-26T00:23:13.179Z,0.00
2022-09-26T00:24:13.246Z,0.00
2022-09-26T00:25:13.167Z,0.00
2022-09-26T00:26:13.161Z,0.00
2022-09-26T00:27:13.153Z,0.00
2022-09-26T00:28:13.164Z,0.00
2022-09-26T00:29:13.198Z,0.00
2022-09-26T00:30:13.143Z,0.00
2022-09-26T00:31:13.166Z,0.00
2022-09-26T00:32:13.117Z,0.00
2022-09-26T00:33:13.118Z,0.00
2022-09-26T00:34:13.107Z,0.00
2022-09-26T00:35:13.099Z,0.00
2022-09-26T00:36:13.095Z,0.00
2022-09-26T00:37:13.084Z,0.00
2022-09-26T00:38:13.081Z,0.00
2022-09-26T00:39:13.132Z,0.00
2022-09-26T00:40:13.169Z,0.00
2022-09-26T00:41:13.067Z,0.00
2022-09-26T00:42:13.062Z,0.00
2022-09-26T00:43:13.048Z,0.00
2022-09-26T00:44:13.040Z,0.00
2022-09-26T00:45:13.032Z,0.00
2022-09-26T00:46:13.076Z,0.00
2022-09-26T00:47:13.017Z,0.00
2022-09-26T00:48:13.013Z,0.00
2022-09-26T00:49:13.065Z,0.00
2022-09-26T00:50:13.001Z,0.00
2022-09-26T00:51:12.991Z,0.00
2022-09-26T00:52:12.984Z,0.00
2022-09-26T00:53:12.977Z,0.00
2022-09-26T00:54:12.970Z,0.00
2022-09-26T00:55:12.962Z,0.00
2022-09-26T00:56:12.962Z,0.00
2022-09-26T00:57:12.950Z,0.00
2022-09-26T00:58:12.944Z,0.00
2022-09-26T00:59:12.964Z,0.00
2022-09-26T01:00:12.930Z,0.00
2022-09-26T01:01:13.014Z,0.00
2022-09-26T01:02:13.132Z,0.00
2022-09-26T01:03:12.911Z,0.00
2022-09-26T01:04:12.902Z,0.00
2022-09-26T01:05:12.904Z,0.00
2022-09-26T01:06:12.888Z,0.00
2022-09-26T01:07:12.881Z,0.00
2022-09-26T01:08:12.874Z,0.00
2022-09-26T01:09:12.964Z,0.00
2022-09-26T01:10:12.859Z,0.00
2022-09-26T01:11:16.767Z,0.00
2022-09-26T01:12:12.918Z,0.00
2022-09-26T01:13:12.844Z,0.00
2022-09-26T01:14:12.833Z,0.00
2022-09-26T01:15:12.826Z,0.00
2022-09-26T01:16:12.849Z,0.00
2022-09-26T01:17:12.812Z,0.00
2022-09-26T01:18:12.808Z,0.00
2022-09-26T01:19:12.857Z,0.00
2022-09-26T01:20:12.792Z,0.00
2022-09-26T01:21:12.784Z,0.00
2022-09-26T01:22:12.776Z,0.00
2022-09-26T01:23:12.778Z,0.00
2022-09-26T01:24:12.766Z,0.00
2022-09-26T01:25:12.756Z,0.00
2022-09-26T01:26:12.790Z,0.00
2022-09-26T01:27:12.746Z,0.00
2022-09-26T01:28:12.736Z,0.00
2022-09-26T01:29:12.847Z,0.00
2022-09-26T01:30:12.725Z,0.00
2022-09-26T01:31:12.820Z,0.00
2022-09-26T01:32:12.708Z,0.00
2022-09-26T01:33:12.726Z,0.00
2022-09-26T01:34:12.694Z,0.00
2022-09-26T01:35:12.693Z,0.00
2022-09-26T01:36:12.683Z,0.00
2022-09-26T01:37:12.671Z,0.00
2022-09-26T01:38:12.665Z,0.00
2022-09-26T01:39:12.710Z,0.00
2022-09-26T01:40:12.719Z,0.00
2022-09-26T01:41:12.646Z,0.00
2022-09-26T01:42:12.638Z,0.00
2022-09-26T01:43:12.633Z,0.00
2022-09-26T01:44:12.622Z,0.00
2022-09-26T01:45:12.614Z,0.00
2022-09-26T01:46:12.687Z,0.00
2022-09-26T01:47:12.605Z,0.00
2022-09-26T01:48:12.596Z,0.00
2022-09-26T01:49:19.749Z,0.00
2022-09-26T01:51:16.591Z,0.00
2022-09-26T01:52:16.576Z,0.00
2022-09-26T01:54:20.558Z,0.00
2022-09-26T01:55:20.548Z,0.00
2022-09-26T01:57:24.551Z,0.00
2022-09-26T01:58:24.536Z,0.00
2022-09-26T02:00:17.442Z,0.00
2022-09-26T02:01:17.490Z,0.00
2022-09-26T02:03:21.422Z,0.00
2022-09-26T02:04:21.408Z,0.00
2022-09-26T02:06:14.529Z,0.00
2022-09-26T02:07:14.511Z,0.00
2022-09-26T02:09:18.517Z,0.00
2022-09-26T02:10:18.506Z,0.00
2022-09-26T02:12:22.500Z,0.00
2022-09-26T02:13:22.514Z,0.00
2022-09-26T02:15:26.469Z,0.00
2022-09-26T02:16:26.523Z,0.00
2022-09-26T02:18:30.451Z,0.00
2022-09-26T02:19:30.433Z,0.00
2022-09-26T02:21:34.419Z,0.00
2022-09-26T02:22:34.405Z,0.00
2022-09-26T02:24:38.412Z,0.00
2022-09-26T02:25:38.401Z,0.00
2022-09-26T02:27:42.387Z,0.00
2022-09-26T02:28:42.375Z,0.00
2022-09-26T02:30:35.272Z,0.00
2022-09-26T02:31:35.288Z,0.00
2022-09-26T02:33:28.367Z,0.00
2022-09-26T02:34:28.350Z,0.00
2022-09-26T02:36:32.335Z,0.00
2022-09-26T02:37:32.315Z,0.00
2022-09-26T02:39:25.609Z,0.00
2022-09-26T02:40:25.749Z,0.00
2022-09-26T02:42:18.703Z,0.00
2022-09-26T02:43:18.701Z,0.00
2022-09-26T02:45:22.657Z,0.00
2022-09-26T02:46:22.721Z,0.00
2022-09-26T02:48:26.633Z,0.00
2022-09-26T02:49:26.619Z,0.00
2022-09-26T02:51:30.600Z,0.00
2022-09-26T02:52:30.584Z,0.00
2022-09-26T02:54:23.683Z,0.00
2022-09-26T02:55:23.672Z,0.00
2022-09-26T02:57:27.651Z,0.00
2022-09-26T02:58:27.630Z,0.00
2022-09-26T03:00:20.537Z,0.00
2022-09-26T03:01:20.570Z,0.00
2022-09-26T03:03:24.557Z,0.00
2022-09-26T03:04:24.548Z,0.00
2022-09-26T03:06:28.486Z,0.00
2022-09-26T03:07:28.470Z,0.00
2022-09-26T03:09:32.451Z,0.00
2022-09-26T03:10:32.436Z,0.00
2022-09-26T03:12:36.432Z,0.00
2022-09-26T03:13:36.412Z,0.00
2022-09-26T03:15:40.439Z,0.00
2022-09-26T03:16:40.466Z,0.00
2022-09-26T03:18:44.433Z,0.00
2022-09-26T03:19:44.417Z,0.00
2022-09-26T03:21:48.395Z,0.00
2022-09-26T03:22:48.379Z,0.00
2022-09-26T03:24:52.362Z,0.00
2022-09-26T03:25:52.347Z,0.00
2022-09-26T03:27:45.452Z,0.00
2022-09-26T03:28:45.433Z,0.00
2022-09-26T03:30:38.358Z,0.00
2022-09-26T03:31:38.406Z,0.00
2022-09-26T03:33:42.335Z,0.00
2022-09-26T03:34:42.317Z,0.00
2022-09-26T03:36:35.638Z,0.00
2022-09-26T03:37:35.596Z,0.00
2022-09-26T03:39:39.568Z,0.00
2022-09-26T03:40:39.629Z,0.00
2022-09-26T03:42:43.563Z,0.00
2022-09-26T03:43:43.546Z,0.00
2022-09-26T03:45:47.566Z,0.00
2022-09-26T03:46:47.507Z,0.00
2022-09-26T03:48:40.620Z,0.00
2022-09-26T03:49:40.602Z,0.00
2022-09-26T03:51:44.590Z,0.00
2022-09-26T03:52:44.572Z,0.00
2022-09-26T03:54:48.543Z,0.00
2022-09-26T03:55:48.541Z,0.00
2022-09-26T03:57:52.513Z,0.00
2022-09-26T03:58:52.496Z,0.00
2022-09-26T04:00:45.445Z,0.00
2022-09-26T04:01:45.456Z,0.00
2022-09-26T04:03:50.830Z,0.00
2022-09-26T04:04:49.365Z,0.00
2022-09-26T04:06:53.374Z,0.00
2022-09-26T04:07:53.358Z,0.00
2022-09-26T04:09:57.349Z,0.00
2022-09-26T04:10:57.337Z,0.00
2022-09-26T04:12:50.614Z,0.00
2022-09-26T04:13:53.001Z,0.00
2022-09-26T04:15:54.600Z,0.00
2022-09-26T04:16:54.567Z,0.00
2022-09-26T04:18:47.675Z,0.00
2022-09-26T04:19:47.656Z,0.00
2022-09-26T04:21:51.641Z,0.00
2022-09-26T04:22:51.628Z,0.00
2022-09-26T04:24:55.618Z,0.00
2022-09-26T04:25:55.607Z,0.00
2022-09-26T04:27:59.591Z,0.00
2022-09-26T04:28:59.572Z,0.00
2022-09-26T04:30:52.667Z,0.00
2022-09-26T04:31:52.701Z,0.00
2022-09-26T04:33:45.771Z,0.00
2022-09-26T04:34:45.747Z,0.00
2022-09-26T04:36:49.735Z,0.00
2022-09-26T04:37:49.717Z,0.00
2022-09-26T04:39:53.686Z,0.00
2022-09-26T04:40:53.706Z,0.00
2022-09-26T04:42:57.664Z,0.00
2022-09-26T04:43:57.643Z,0.00
2022-09-26T04:46:01.705Z,0.00
2022-09-26T04:47:01.619Z,0.00
2022-09-26T04:49:05.686Z,0.00
2022-09-26T04:50:05.589Z,0.00
2022-09-26T04:52:09.583Z,5.63
2022-09-26T04:53:09.566Z,5.63
2022-09-26T04:55:02.663Z,5.63
2022-09-26T04:56:02.659Z,5.63
2022-09-26T04:58:06.645Z,5.63
2022-09-26T04:59:06.679Z,5.63
2022-09-26T05:01:10.777Z,11.25
2022-09-26T05:02:10.622Z,11.25
2022-09-26T05:04:14.563Z,11.25
2022-09-26T05:05:14.548Z,11.25
2022-09-26T05:07:18.538Z,16.88
2022-09-26T05:08:18.516Z,16.88
2022-09-26T05:10:11.433Z,16.88
2022-09-26T05:11:11.418Z,16.88
2022-09-26T05:13:04.616Z,22.50
2022-09-26T05:14:04.597Z,22.50
2022-09-26T05:15:57.741Z,28.13
2022-09-26T05:16:57.688Z,28.13
2022-09-26T05:18:50.785Z,28.13
2022-09-26T05:19:50.774Z,33.75
2022-09-26T05:21:54.759Z,33.75
2022-09-26T05:22:54.741Z,39.38
2022-09-26T05:24:58.708Z,39.38
2022-09-26T05:25:58.748Z,45.00
2022-09-26T05:28:02.683Z,50.63
2022-09-26T05:29:07.617Z,50.63
2022-09-26T05:31:06.717Z,56.25
2022-09-26T05:32:06.693Z,61.88
2022-09-26T05:34:00.219Z,67.50
2022-09-26T05:35:00.211Z,67.50
2022-09-26T05:36:00.201Z,78.75
2022-09-26T05:37:00.193Z,95.63
2022-09-26T05:38:00.185Z,101.25
2022-09-26T05:39:00.175Z,101.25
2022-09-26T05:40:00.184Z,84.38
2022-09-26T05:41:00.194Z,84.38
2022-09-26T05:42:00.152Z,140.63
2022-09-26T05:43:00.210Z,129.38
2022-09-26T05:44:00.141Z,129.38
2022-09-26T05:45:00.136Z,140.63
2022-09-26T05:46:00.143Z,225.00
2022-09-26T05:47:00.150Z,225.00
2022-09-26T05:48:00.108Z,191.25
2022-09-26T05:49:00.103Z,157.50
2022-09-26T05:50:00.117Z,135.00
2022-09-26T05:51:00.088Z,163.13
2022-09-26T05:52:00.083Z,196.88
2022-09-26T05:53:00.085Z,196.88
2022-09-26T05:54:00.066Z,168.75
2022-09-26T05:55:00.061Z,140.63
2022-09-26T05:56:00.052Z,123.75
2022-09-26T05:57:00.045Z,118.13
2022-09-26T05:58:00.037Z,112.50
2022-09-26T05:59:00.038Z,118.13
2022-09-26T06:00:00.028Z,118.13
2022-09-26T06:01:00.093Z,118.13
2022-09-26T06:02:00.048Z,123.75
2022-09-26T06:03:00.005Z,129.38
2022-09-26T06:03:59.997Z,146.25
2022-09-26T06:04:59.984Z,174.38
2022-09-26T06:05:59.982Z,191.25
2022-09-26T06:06:59.976Z,196.88
2022-09-26T06:07:59.974Z,196.88
2022-09-26T06:08:59.962Z,191.25
2022-09-26T06:09:59.953Z,202.50
2022-09-26T06:10:59.949Z,213.75
2022-09-26T06:11:59.942Z,213.75
2022-09-26T06:12:59.936Z,225.00
2022-09-26T06:13:59.929Z,208.13
2022-09-26T06:14:59.922Z,168.75
2022-09-26T06:15:59.947Z,157.50
2022-09-26T06:16:59.910Z,151.88
2022-09-26T06:17:59.901Z,157.50
2022-09-26T06:18:59.897Z,157.50
2022-09-26T06:19:59.889Z,163.13
2022-09-26T06:20:59.884Z,174.38
2022-09-26T06:21:59.878Z,202.50
2022-09-26T06:22:59.875Z,247.50
2022-09-26T06:23:59.866Z,253.13
2022-09-26T06:24:59.860Z,264.38
2022-09-26T06:25:59.850Z,270.00
2022-09-26T06:26:59.845Z,219.38
2022-09-26T06:28:00.433Z,202.50
2022-09-26T06:28:59.838Z,213.75
2022-09-26T06:29:59.827Z,253.13
2022-09-26T06:30:59.820Z,275.63
2022-09-26T06:31:59.892Z,292.50
2022-09-26T06:32:59.810Z,315.00
2022-09-26T06:33:59.822Z,337.50
2022-09-26T06:34:59.797Z,275.63
2022-09-26T06:35:59.793Z,264.38
2022-09-26T06:36:59.787Z,292.50
2022-09-26T06:37:59.782Z,298.13
2022-09-26T06:38:59.774Z,320.63
2022-09-26T06:39:59.770Z,270.00
2022-09-26T06:40:59.890Z,208.13
2022-09-26T06:41:59.759Z,191.25
2022-09-26T06:42:59.751Z,191.25
2022-09-26T06:43:59.748Z,191.25
2022-09-26T06:44:59.742Z,185.63
2022-09-26T06:45:59.737Z,185.63
2022-09-26T06:46:59.796Z,185.63
2022-09-26T06:47:59.723Z,185.63
2022-09-26T06:48:59.723Z,185.63
2022-09-26T06:49:59.711Z,185.63
2022-09-26T06:50:59.708Z,185.63
2022-09-26T06:51:59.701Z,180.00
2022-09-26T06:53:02.941Z,180.00
2022-09-26T06:53:59.689Z,180.00
2022-09-26T06:54:59.683Z,180.00
2022-09-26T06:55:59.678Z,174.38
2022-09-26T06:56:59.673Z,174.38
2022-09-26T06:57:59.666Z,180.00
2022-09-26T06:58:59.660Z,180.00
2022-09-26T06:59:59.655Z,180.00
2022-09-26T07:00:59.912Z,180.00
2022-09-26T07:02:00.012Z,174.38
2022-09-26T07:02:59.636Z,174.38
2022-09-26T07:03:59.629Z,174.38
2022-09-26T07:04:59.625Z,174.38
2022-09-26T07:05:59.618Z,174.38
2022-09-26T07:06:59.616Z,174.38
2022-09-26T07:07:59.607Z,174.38
2022-09-26T07:09:12.301Z,174.38
2022-09-26T07:09:59.596Z,174.38
2022-09-26T07:11:11.104Z,174.38
2022-09-26T07:12:15.740Z,168.75
2022-09-26T07:12:59.577Z,168.75
2022-09-26T07:13:59.572Z,163.13
2022-09-26T07:14:59.564Z,157.50
2022-09-26T07:15:59.638Z,157.50
2022-09-26T07:16:59.552Z,151.88
2022-09-26T07:17:59.642Z,157.50
2022-09-26T07:18:59.544Z,157.50
2022-09-26T07:19:59.590Z,163.13
2022-09-26T07:20:59.533Z,163.13
2022-09-26T07:21:59.528Z,163.13
2022-09-26T07:22:59.518Z,163.13
2022-09-26T07:23:59.509Z,163.13
2022-09-26T07:24:59.506Z,163.13
2022-09-26T07:25:59.499Z,163.13
2022-09-26T07:26:59.495Z,163.13
2022-09-26T07:27:59.493Z,163.13
2022-09-26T07:28:59.484Z,163.13
2022-09-26T07:29:59.477Z,163.13
2022-09-26T07:30:59.528Z,168.75
2022-09-26T07:31:59.540Z,168.75
2022-09-26T07:32:59.460Z,168.75
2022-09-26T07:33:59.454Z,168.75
2022-09-26T07:34:59.448Z,168.75
2022-09-26T07:36:04.440Z,168.75
2022-09-26T07:36:59.667Z,168.75
2022-09-26T07:37:59.431Z,180.00
2022-09-26T07:38:59.424Z,174.38
2022-09-26T07:40:01.587Z,168.75
2022-09-26T07:40:59.508Z,168.75
2022-09-26T07:41:59.405Z,174.38
2022-09-26T07:43:18.435Z,163.13
2022-09-26T07:45:24.301Z,157.50
2022-09-26T07:45:59.383Z,151.88
2022-09-26T07:46:59.437Z,151.88
2022-09-26T07:47:59.373Z,157.50
2022-09-26T07:48:59.366Z,146.25
2022-09-26T07:49:59.359Z,146.25
2022-09-26T07:50:59.355Z,157.50
2022-09-26T07:51:59.350Z,174.38
2022-09-26T07:52:59.344Z,146.25
2022-09-26T07:53:59.335Z,146.25
2022-09-26T07:54:59.332Z,140.63
2022-09-26T07:55:59.327Z,135.00
2022-09-26T07:56:59.321Z,135.00
2022-09-26T07:57:59.325Z,140.63
2022-09-26T07:58:59.310Z,157.50
2022-09-26T07:59:59.303Z,140.63
2022-09-26T08:00:59.299Z,140.63
2022-09-26T08:01:59.325Z,140.63
2022-09-26T08:02:59.338Z,140.63
2022-09-26T08:03:59.281Z,140.63
2022-09-26T08:05:01.242Z,140.63
2022-09-26T08:05:59.267Z,135.00
2022-09-26T08:06:59.264Z,135.00
2022-09-26T08:07:59.257Z,140.63
2022-09-26T08:08:59.256Z,140.63
2022-09-26T08:09:59.247Z,135.00
2022-09-26T08:11:03.728Z,135.00
2022-09-26T08:11:59.234Z,135.00
2022-09-26T08:12:59.231Z,135.00
2022-09-26T08:13:59.223Z,135.00
2022-09-26T08:14:59.219Z,135.00
2022-09-26T08:15:59.238Z,135.00
2022-09-26T08:16:59.208Z,135.00
2022-09-26T08:17:59.199Z,135.00
2022-09-26T08:18:59.195Z,135.00
2022-09-26T08:19:59.189Z,135.00
2022-09-26T08:20:59.184Z,135.00
2022-09-26T08:21:59.277Z,135.00
2022-09-26T08:22:59.176Z,135.00
2022-09-26T08:23:59.169Z,135.00
2022-09-26T08:24:59.162Z,135.00
2022-09-26T08:25:59.156Z,135.00
2022-09-26T08:26:59.150Z,135.00
2022-09-26T08:27:59.151Z,135.00
2022-09-26T08:28:59.140Z,135.00
2022-09-26T08:29:59.133Z,135.00
2022-09-26T08:30:59.154Z,140.63
2022-09-26T08:31:59.125Z,146.25
2022-09-26T08:32:59.121Z,174.38
2022-09-26T08:33:59.111Z,157.50
2022-09-26T08:34:59.108Z,146.25
2022-09-26T08:35:59.100Z,157.50
2022-09-26T08:36:59.096Z,157.50
2022-09-26T08:37:59.089Z,151.88
2022-09-26T08:38:59.084Z,146.25
2022-09-26T08:39:59.079Z,135.00
2022-09-26T08:40:59.106Z,135.00
2022-09-26T08:41:59.067Z,146.25
2022-09-26T08:42:59.063Z,174.38
2022-09-26T08:43:59.057Z,157.50
2022-09-26T08:44:59.053Z,163.13
2022-09-26T08:45:59.046Z,146.25
2022-09-26T08:46:59.084Z,140.63
2022-09-26T08:47:59.038Z,151.88
2022-09-26T08:48:59.030Z,157.50
2022-09-26T08:49:59.025Z,151.88
2022-09-26T08:50:59.019Z,151.88
2022-09-26T08:51:59.016Z,163.13
2022-09-26T08:52:59.012Z,157.50
2022-09-26T08:53:59.004Z,157.50
2022-09-26T08:54:58.998Z,185.63
2022-09-26T08:55:58.994Z,180.00
2022-09-26T08:56:58.987Z,180.00
2022-09-26T08:57:58.982Z,163.13
2022-09-26T08:58:58.979Z,151.88
2022-09-26T08:59:58.982Z,163.13
2022-09-26T09:00:58.966Z,180.00
2022-09-26T09:01:59.084Z,174.38
2022-09-26T09:02:58.978Z,157.50
2022-09-26T09:03:58.951Z,168.75
2022-09-26T09:04:58.945Z,202.50
2022-09-26T09:05:58.942Z,219.38
2022-09-26T09:06:58.935Z,236.25
2022-09-26T09:07:58.933Z,241.88
2022-09-26T09:08:58.925Z,225.00
2022-09-26T09:09:58.988Z,219.38
2022-09-26T09:10:58.914Z,225.00
2022-09-26T09:11:58.911Z,185.63
2022-09-26T09:12:58.905Z,208.13
2022-09-26T09:13:58.901Z,196.88
2022-09-26T09:15:23.580Z,253.13
2022-09-26T09:15:58.933Z,236.25
2022-09-26T09:16:58.886Z,174.38
2022-09-26T09:17:58.879Z,151.88
2022-09-26T09:18:58.874Z,180.00
2022-09-26T09:19:58.871Z,202.50
2022-09-26T09:20:58.865Z,163.13
2022-09-26T09:21:58.861Z,174.38
2022-09-26T09:22:58.862Z,157.50
2022-09-26T09:23:58.852Z,151.88
2022-09-26T09:24:58.849Z,146.25
2022-09-26T09:27:52.404Z,151.88
2022-09-26T09:28:03.973Z,146.25
2022-09-26T09:28:58.829Z,157.50
2022-09-26T09:29:58.823Z,146.25
2022-09-26T09:30:58.849Z,135.00
2022-09-26T09:31:58.814Z,135.00
2022-09-26T09:32:58.811Z,135.00
2022-09-26T09:33:58.808Z,135.00
2022-09-26T09:34:58.798Z,129.38
2022-09-26T09:35:58.794Z,129.38
2022-09-26T09:36:58.789Z,123.75
2022-09-26T09:37:58.782Z,135.00
2022-09-26T09:38:58.778Z,135.00
2022-09-26T09:39:58.774Z,140.63
2022-09-26T09:40:58.821Z,163.13
2022-09-26T09:41:58.765Z,146.25
2022-09-26T09:42:58.759Z,123.75
2022-09-26T09:43:58.755Z,151.88
2022-09-26T09:44:58.751Z,163.13
2022-09-26T09:45:58.743Z,163.13
2022-09-26T09:46:58.809Z,157.50
2022-09-26T09:47:58.734Z,163.13
2022-09-26T09:48:58.731Z,151.88
2022-09-26T09:49:58.728Z,163.13
2022-09-26T09:50:58.720Z,163.13
2022-09-26T09:51:58.719Z,196.88
2022-09-26T09:52:58.714Z,208.13
2022-09-26T09:53:58.708Z,208.13
2022-09-26T09:54:58.704Z,174.38
2022-09-26T09:55:58.699Z,174.38
2022-09-26T09:56:58.696Z,185.63
2022-09-26T09:57:58.689Z,202.50
2022-09-26T09:58:58.687Z,185.63
2022-09-26T09:59:58.679Z,180.00
2022-09-26T10:00:58.675Z,191.25
2022-09-26T10:01:58.671Z,180.00
2022-09-26T10:02:58.841Z,180.00
2022-09-26T10:03:58.661Z,191.25
2022-09-26T10:04:58.659Z,213.75
2022-09-26T10:05:58.652Z,225.00
2022-09-26T10:06:58.649Z,208.13
2022-09-26T10:07:58.644Z,191.25
2022-09-26T10:08:58.640Z,196.88
2022-09-26T10:09:58.634Z,208.13
2022-09-26T10:10:58.629Z,213.75
2022-09-26T10:11:58.628Z,219.38
2022-09-26T10:12:58.627Z,230.63
2022-09-26T10:13:58.662Z,236.25
2022-09-26T10:14:58.615Z,225.00
2022-09-26T10:15:58.644Z,241.88
2022-09-26T10:16:58.607Z,303.75
2022-09-26T10:18:22.906Z,270.00
2022-09-26T10:19:03.096Z,264.38
2022-09-26T10:19:58.588Z,264.38
2022-09-26T10:20:58.589Z,275.63
2022-09-26T10:21:58.585Z,241.88
2022-09-26T10:22:58.581Z,253.13
2022-09-26T10:23:58.579Z,275.63
2022-09-26T10:24:58.575Z,281.25
2022-09-26T10:25:58.570Z,275.63
2022-09-26T10:26:58.565Z,281.25
2022-09-26T10:27:58.563Z,315.00
2022-09-26T10:28:58.563Z,315.00
2022-09-26T10:29:58.553Z,315.00
2022-09-26T10:30:58.568Z,337.50
2022-09-26T10:31:58.549Z,331.88
2022-09-26T10:32:58.543Z,337.50
2022-09-26T10:33:58.539Z,326.25
2022-09-26T10:34:58.539Z,309.38
2022-09-26T10:35:58.532Z,292.50
2022-09-26T10:36:58.530Z,286.88
2022-09-26T10:37:58.524Z,292.50
2022-09-26T10:38:58.523Z,275.63
2022-09-26T10:39:58.517Z,253.13
2022-09-26T10:40:58.577Z,241.88
2022-09-26T10:41:58.522Z,219.38
2022-09-26T10:42:58.508Z,196.88
2022-09-26T10:43:58.507Z,174.38
2022-09-26T10:44:58.503Z,146.25
2022-09-26T10:45:58.556Z,135.00
2022-09-26T10:46:58.637Z,118.13
2022-09-26T10:47:58.490Z,101.25
2022-09-26T10:48:58.488Z,95.63
2022-09-26T10:49:58.487Z,90.00
2022-09-26T10:50:58.489Z,84.38
2022-09-26T10:52:01.008Z,78.75
2022-09-26T10:52:58.473Z,78.75
2022-09-26T10:53:58.469Z,78.75
2022-09-26T10:54:58.475Z,73.13
2022-09-26T10:55:58.461Z,73.13
2022-09-26T10:56:58.458Z,73.13
2022-09-26T10:57:58.458Z,73.13
2022-09-26T10:58:58.451Z,67.50
2022-09-26T10:59:58.445Z,78.75
2022-09-26T11:00:58.441Z,84.38
2022-09-26T11:01:58.483Z,90.00
2022-09-26T11:02:58.435Z,95.63
2022-09-26T11:03:58.498Z,101.25
2022-09-26T11:04:58.426Z,106.88
2022-09-26T11:05:58.431Z,135.00
2022-09-26T11:06:58.417Z,146.25
2022-09-26T11:07:58.416Z,168.75
2022-09-26T11:08:58.427Z,191.25
2022-09-26T11:09:58.407Z,213.75
2022-09-26T11:10:58.407Z,230.63
2022-09-26T11:11:58.399Z,236.25
2022-09-26T11:12:58.395Z,236.25
2022-09-26T11:13:58.391Z,230.63
2022-09-26T11:14:58.386Z,225.00
2022-09-26T11:15:58.456Z,225.00
2022-09-26T11:16:58.378Z,230.63
2022-09-26T11:17:58.374Z,230.63
2022-09-26T11:18:58.370Z,236.25
2022-09-26T11:19:58.368Z,236.25
2022-09-26T11:20:58.362Z,236.25
2022-09-26T11:21:58.362Z,236.25
2022-09-26T11:22:58.356Z,236.25
2022-09-26T11:23:58.351Z,241.88
2022-09-26T11:24:58.348Z,253.13
2022-09-26T11:25:58.430Z,264.38
2022-09-26T11:26:58.339Z,286.88
2022-09-26T11:27:58.334Z,303.75
2022-09-26T11:28:58.330Z,303.75
2022-09-26T11:29:58.326Z,286.88
2022-09-26T11:30:58.362Z,258.75
2022-09-26T11:32:00.329Z,219.38
2022-09-26T11:32:58.317Z,185.63
2022-09-26T11:33:58.316Z,196.88
2022-09-26T11:34:58.310Z,230.63
2022-09-26T11:35:58.305Z,253.13
2022-09-26T11:36:58.302Z,264.38
2022-09-26T11:37:58.298Z,275.63
2022-09-26T11:38:58.296Z,281.25
2022-09-26T11:39:58.291Z,281.25
2022-09-26T11:40:58.323Z,270.00
2022-09-26T11:41:58.282Z,264.38
2022-09-26T11:42:58.280Z,258.75
2022-09-26T11:43:58.277Z,253.13
2022-09-26T11:44:58.275Z,241.88
2022-09-26T11:45:58.323Z,225.00
2022-09-26T11:46:58.268Z,196.88
2022-09-26T11:47:58.264Z,174.38
2022-09-26T11:48:58.272Z,151.88
2022-09-26T11:49:58.257Z,140.63
2022-09-26T11:50:58.252Z,129.38
2022-09-26T11:51:58.252Z,123.75
2022-09-26T11:52:58.249Z,123.75
2022-09-26T11:53:58.242Z,123.75
2022-09-26T11:54:58.242Z,123.75
2022-09-26T11:55:58.236Z,135.00
2022-09-26T11:56:58.244Z,140.63
2022-09-26T11:57:58.227Z,202.50
2022-09-26T11:58:58.225Z,230.63
2022-09-26T11:59:58.221Z,281.25
2022-09-26T12:00:58.219Z,331.88
2022-09-26T12:01:58.215Z,331.88
2022-09-26T12:02:58.357Z,365.63
2022-09-26T12:03:58.333Z,292.50
2022-09-26T12:04:58.205Z,208.13
2022-09-26T12:05:58.201Z,241.88
2022-09-26T12:06:58.199Z,213.75
2022-09-26T12:07:58.193Z,236.25
2022-09-26T12:08:58.191Z,241.88
2022-09-26T12:09:58.185Z,264.38
2022-09-26T12:10:58.181Z,270.00
2022-09-26T12:11:58.181Z,286.88
2022-09-26T12:12:58.178Z,286.88
2022-09-26T12:13:58.176Z,286.88
2022-09-26T12:14:58.170Z,292.50
2022-09-26T12:15:58.237Z,292.50
2022-09-26T12:16:58.164Z,253.13
2022-09-26T12:17:58.162Z,258.75
2022-09-26T12:18:58.157Z,225.00
2022-09-26T12:19:58.153Z,191.25
2022-09-26T12:20:58.153Z,174.38
2022-09-26T12:21:58.146Z,180.00
2022-09-26T12:22:58.145Z,180.00
2022-09-26T12:23:58.141Z,180.00
2022-09-26T12:24:58.138Z,191.25
2022-09-26T12:25:58.134Z,213.75
2022-09-26T12:26:58.130Z,230.63
2022-09-26T12:27:58.129Z,247.50
2022-09-26T12:28:58.126Z,253.13
2022-09-26T12:29:58.122Z,264.38
2022-09-26T12:30:58.258Z,247.50
2022-09-26T12:31:58.117Z,225.00
2022-09-26T12:32:58.114Z,230.63
2022-09-26T12:33:58.109Z,247.50
2022-09-26T12:34:58.106Z,253.13
2022-09-26T12:35:58.102Z,236.25
2022-09-26T12:36:58.100Z,225.00
2022-09-26T12:37:58.098Z,219.38
2022-09-26T12:38:58.096Z,208.13
2022-09-26T12:39:58.093Z,213.75
2022-09-26T12:40:58.149Z,219.38
2022-09-26T12:41:58.083Z,213.75
2022-09-26T12:42:58.081Z,208.13
2022-09-26T12:43:58.077Z,208.13
2022-09-26T12:44:58.078Z,213.75
2022-09-26T12:45:58.181Z,196.88
2022-09-26T12:46:58.146Z,180.00
2022-09-26T12:47:58.064Z,168.75
2022-09-26T12:48:58.063Z,157.50
2022-09-26T12:49:58.061Z,146.25
2022-09-26T12:50:58.057Z,135.00
2022-09-26T12:51:58.054Z,112.50
2022-09-26T12:52:58.050Z,106.88
2022-09-26T12:53:58.046Z,90.00
2022-09-26T12:54:58.038Z,84.38
2022-09-26T12:55:58.037Z,78.75
2022-09-26T12:56:58.035Z,67.50
2022-09-26T12:57:58.031Z,61.88
2022-09-26T12:58:58.025Z,61.88
2022-09-26T12:59:58.024Z,73.13
2022-09-26T13:00:58.021Z,106.88
2022-09-26T13:01:58.128Z,146.25
2022-09-26T13:02:58.061Z,174.38
2022-09-26T13:03:58.010Z,191.25
2022-09-26T13:04:58.005Z,202.50
2022-09-26T13:05:58.003Z,213.75
2022-09-26T13:07:17.610Z,225.00
2022-09-26T13:07:57.995Z,236.25
2022-09-26T13:08:57.992Z,236.25
2022-09-26T13:09:57.989Z,236.25
2022-09-26T13:10:57.983Z,219.38
2022-09-26T13:11:57.984Z,219.38
2022-09-26T13:12:57.980Z,213.75
2022-09-26T13:13:57.973Z,202.50
2022-09-26T13:14:57.970Z,202.50
2022-09-26T13:15:58.039Z,202.50
2022-09-26T13:16:57.968Z,202.50
2022-09-26T13:17:57.962Z,196.88
2022-09-26T13:18:57.957Z,196.88
2022-09-26T13:19:57.952Z,208.13
2022-09-26T13:20:57.955Z,213.75
2022-09-26T13:21:57.947Z,225.00
2022-09-26T13:22:57.941Z,230.63
2022-09-26T13:23:57.947Z,236.25
2022-09-26T13:24:57.937Z,236.25
2022-09-26T13:25:57.934Z,230.63
2022-09-26T13:26:57.931Z,230.63
2022-09-26T13:27:57.931Z,213.75
2022-09-26T13:29:16.249Z,208.13
2022-09-26T13:29:57.921Z,202.50
2022-09-26T13:30:57.960Z,196.88
2022-09-26T13:31:57.913Z,191.25
2022-09-26T13:32:57.913Z,191.25
2022-09-26T13:33:57.905Z,208.13
2022-09-26T13:34:57.904Z,196.88
2022-09-26T13:35:57.899Z,191.25
2022-09-26T13:36:57.898Z,191.25
2022-09-26T13:38:01.309Z,191.25
2022-09-26T13:38:57.887Z,185.63
2022-09-26T13:39:57.888Z,185.63
2022-09-26T13:40:57.928Z,180.00
2022-09-26T13:41:57.880Z,157.50
2022-09-26T13:43:02.694Z,146.25
2022-09-26T13:43:57.875Z,140.63
2022-09-26T13:44:57.874Z,140.63
2022-09-26T13:45:57.892Z,146.25
2022-09-26T13:46:57.862Z,157.50
2022-09-26T13:47:57.860Z,157.50
2022-09-26T13:48:57.858Z,146.25
2022-09-26T13:49:57.851Z,140.63
2022-09-26T13:50:57.849Z,140.63
2022-09-26T13:51:57.846Z,140.63
2022-09-26T13:52:57.842Z,140.63
2022-09-26T13:53:57.840Z,157.50
2022-09-26T13:54:57.836Z,157.50
2022-09-26T13:55:57.834Z,157.50
2022-09-26T13:56:57.831Z,168.75
2022-09-26T13:57:57.843Z,174.38
2022-09-26T13:58:57.820Z,180.00
2022-09-26T13:59:57.817Z,185.63
2022-09-26T14:00:57.813Z,180.00
2022-09-26T14:01:57.837Z,180.00